createdAt,value
2022-11-11T00:01:01.059Z,59.37
2022-11-11T00:03:28.607Z,57.33
2022-11-11T00:05:56.008Z,57.17
2022-11-11T00:08:23.180Z,56.60
2022-11-11T00:10:50.310Z,59.97
2022-11-11T00:13:17.480Z,48.77
2022-11-11T00:15:44.677Z,51.47
2022-11-11T00:18:31.346Z,49.90
2022-11-11T00:21:17.847Z,47.43
2022-11-11T00:24:03.626Z,45.40
2022-11-11T00:26:39.668Z,48.10
2022-11-11T00:29:07.325Z,44.73
2022-11-11T00:31:35.772Z,40.77
2022-11-11T00:34:02.942Z,52.50
2022-11-11T00:36:30.204Z,43.67
2022-11-11T00:38:58.334Z,43.37
2022-11-11T00:41:27.310Z,45.87
2022-11-11T00:43:54.530Z,44.93
2022-11-11T00:46:40.486Z,46.67
2022-11-11T00:49:26.883Z,43.47
2022-11-11T00:51:54.046Z,39.53
2022-11-11T00:54:21.188Z,43.73
2022-11-11T00:56:48.317Z,44.47
2022-11-11T00:59:15.533Z,43.27
2022-11-11T01:01:42.716Z,46.57
2022-11-11T01:04:09.949Z,57.30
2022-11-11T01:06:37.699Z,62.47
2022-11-11T01:09:08.178Z,48.40
2022-11-11T01:11:35.415Z,42.30
2022-11-11T01:14:02.621Z,46.87
2022-11-11T01:16:29.838Z,41.20
2022-11-11T01:18:56.931Z,69.40
2022-11-11T01:21:24.604Z,65.23
2022-11-11T01:23:52.677Z,58.67
2022-11-11T01:26:23.587Z,55.40
2022-11-11T01:28:53.705Z,76.13
2022-11-11T01:31:21.349Z,90.80
2022-11-11T01:33:49.067Z,91.93
2022-11-11T01:36:23.663Z,113.40
2022-11-11T01:38:51.432Z,80.80
2022-11-11T01:41:35.589Z,71.40
2022-11-11T01:44:11.913Z,72.67
2022-11-11T01:46:49.735Z,64.57
2022-11-11T01:49:35.022Z,61.07
2022-11-11T01:52:11.219Z,59.90
2022-11-11T01:54:45.075Z,43.90
2022-11-11T01:57:12.301Z,51.30
2022-11-11T01:59:39.666Z,44.23
2022-11-11T02:02:08.826Z,48.17
2022-11-11T02:04:54.968Z,58.00
2022-11-11T02:07:22.158Z,50.00
2022-11-11T02:09:49.560Z,36.93
2022-11-11T02:12:35.187Z,45.93
2022-11-11T02:15:02.301Z,49.93
2022-11-11T02:17:29.736Z,39.80
2022-11-11T02:19:57.894Z,43.17
2022-11-11T02:22:27.898Z,42.73
2022-11-11T02:24:55.246Z,51.83
2022-11-11T02:27:22.443Z,37.90
2022-11-11T02:29:50.579Z,42.17
2022-11-11T02:32:17.703Z,36.37
2022-11-11T02:34:44.864Z,34.03
2022-11-11T02:37:11.982Z,29.87
2022-11-11T02:40:02.065Z,36.73
2022-11-11T02:42:28.557Z,30.83
2022-11-11T02:44:58.949Z,26.80
2022-11-11T02:47:27.056Z,28.10
2022-11-11T02:49:54.594Z,34.23
2022-11-11T02:52:21.779Z,31.33
2022-11-11T02:54:49.444Z,38.63
2022-11-11T02:57:17.050Z,32.33
2022-11-11T02:59:44.388Z,40.70
2022-11-11T03:02:11.623Z,37.97
2022-11-11T03:04:39.172Z,43.20
2022-11-11T03:07:06.721Z,34.97
2022-11-11T03:09:34.260Z,55.07
2022-11-11T03:12:01.640Z,37.17
2022-11-11T03:14:28.881Z,36.30
2022-11-11T03:17:14.996Z,38.47
2022-11-11T03:19:42.141Z,49.53
2022-11-11T03:25:14.876Z,42.63
2022-11-11T03:27:42.234Z,38.93
2022-11-11T03:30:09.537Z,51.27
2022-11-11T03:32:36.657Z,37.17
2022-11-11T03:35:03.769Z,30.87
2022-11-11T03:37:49.374Z,35.97
2022-11-11T03:40:16.525Z,33.87
2022-11-11T03:42:44.006Z,27.87
2022-11-11T03:45:11.182Z,31.20
2022-11-11T03:47:38.251Z,32.17
2022-11-11T03:50:05.488Z,37.57
2022-11-11T03:52:32.646Z,31.37
2022-11-11T03:54:59.714Z,40.27
2022-11-11T03:57:33.007Z,43.33
2022-11-11T04:00:00.173Z,45.00
2022-11-11T04:02:46.131Z,43.20
2022-11-11T04:05:31.947Z,34.87
2022-11-11T04:08:17.880Z,43.13
2022-11-11T04:10:44.962Z,52.03
2022-11-11T04:13:30.505Z,81.07
2022-11-11T04:16:06.823Z,51.33
2022-11-11T04:18:53.165Z,34.60
2022-11-11T04:21:38.958Z,35.20
2022-11-11T04:24:25.272Z,30.77
2022-11-11T04:26:52.364Z,27.57
2022-11-11T04:29:28.430Z,39.67
2022-11-11T04:32:34.440Z,38.93
2022-11-11T04:35:02.239Z,39.97
2022-11-11T04:37:31.349Z,35.93
2022-11-11T04:40:17.227Z,28.37
2022-11-11T04:42:44.327Z,27.77
2022-11-11T04:45:30.669Z,23.77
2022-11-11T04:48:10.454Z,23.67
2022-11-11T04:50:38.350Z,22.57
2022-11-11T04:53:06.176Z,22.53
2022-11-11T04:55:51.886Z,27.97
2022-11-11T04:58:19.924Z,30.53
2022-11-11T05:00:47.089Z,47.57
2022-11-11T05:03:18.484Z,22.23
2022-11-11T05:06:08.032Z,20.03
2022-11-11T05:08:54.543Z,17.73
2022-11-11T05:11:22.132Z,18.50
2022-11-11T05:14:07.743Z,18.47
2022-11-11T05:16:54.155Z,15.47
2022-11-11T05:19:40.147Z,14.57
2022-11-11T05:22:13.220Z,15.33
2022-11-11T05:24:59.183Z,14.53
2022-11-11T05:27:26.792Z,20.23
2022-11-11T05:29:53.882Z,18.00
2022-11-11T05:32:21.232Z,16.70
2022-11-11T05:34:48.336Z,18.70
2022-11-11T05:37:15.455Z,21.13
2022-11-11T05:39:42.722Z,21.23
2022-11-11T05:42:09.918Z,18.20
2022-11-11T05:44:37.046Z,25.43
2022-11-11T05:47:04.295Z,22.57
2022-11-11T05:49:31.401Z,22.60
2022-11-11T05:51:58.586Z,20.20
2022-11-11T05:54:25.757Z,23.70
2022-11-11T05:56:52.885Z,19.83
2022-11-11T05:59:20.023Z,26.50
2022-11-11T06:01:47.230Z,22.73
2022-11-11T06:04:18.240Z,28.00
2022-11-11T06:06:45.660Z,23.60
2022-11-11T06:09:12.818Z,23.60
2022-11-11T06:11:39.917Z,22.37
2022-11-11T06:14:07.067Z,73.30
2022-11-11T06:16:34.217Z,57.63
2022-11-11T06:19:04.010Z,27.17
2022-11-11T06:21:32.754Z,32.53
2022-11-11T06:23:59.872Z,26.97
2022-11-11T06:26:26.991Z,28.87
2022-11-11T06:28:54.985Z,48.47
2022-11-11T06:31:22.855Z,36.00
2022-11-11T06:33:49.925Z,39.83
2022-11-11T06:36:17.905Z,41.03
2022-11-11T06:38:45.047Z,39.03
2022-11-11T06:41:12.866Z,39.40
2022-11-11T06:43:43.329Z,54.27
2022-11-11T06:46:25.805Z,40.93
2022-11-11T06:48:52.911Z,34.67
2022-11-11T06:51:19.992Z,39.83
2022-11-11T06:53:47.119Z,36.60
2022-11-11T06:56:14.275Z,30.63
2022-11-11T06:58:41.444Z,35.77
2022-11-11T07:01:09.312Z,31.63
2022-11-11T07:03:36.595Z,32.00
2022-11-11T07:06:04.336Z,27.30
2022-11-11T07:08:31.514Z,27.92
2022-11-11T07:10:58.637Z,54.67
2022-11-11T07:13:25.789Z,74.03
2022-11-11T07:15:52.905Z,73.13
2022-11-11T07:18:20.037Z,60.20
2022-11-11T07:20:47.183Z,71.97
2022-11-11T07:23:14.374Z,88.70
2022-11-11T07:25:41.476Z,133.57
2022-11-11T07:28:08.566Z,130.55
2022-11-11T07:30:35.687Z,125.13
2022-11-11T07:33:02.794Z,125.33
2022-11-11T07:35:29.869Z,132.35
2022-11-11T07:37:57.056Z,171.95
2022-11-11T07:40:24.121Z,137.80
2022-11-11T07:42:51.207Z,123.07
2022-11-11T07:45:18.762Z,119.22
2022-11-11T07:47:45.935Z,116.15
2022-11-11T07:50:13.102Z,115.68
2022-11-11T07:52:40.813Z,107.13
2022-11-11T07:55:08.824Z,102.90
2022-11-11T07:57:36.052Z,104.88
2022-11-11T08:00:03.297Z,86.28
2022-11-11T08:02:30.393Z,87.20
2022-11-11T08:04:57.473Z,81.65
2022-11-11T08:07:24.766Z,100.45
2022-11-11T08:09:52.224Z,102.68
2022-11-11T08:12:37.725Z,102.63
2022-11-11T08:15:07.136Z,74.22
2022-11-11T08:17:39.358Z,77.40
2022-11-11T08:20:09.586Z,62.80
2022-11-11T08:22:37.646Z,48.80
2022-11-11T08:25:05.813Z,51.22
2022-11-11T08:27:33.308Z,49.75
2022-11-11T08:30:00.465Z,52.45
2022-11-11T08:32:27.593Z,40.33
2022-11-11T08:34:54.674Z,38.10
2022-11-11T08:37:21.754Z,32.22
2022-11-11T08:39:48.881Z,32.28
2022-11-11T08:42:15.999Z,29.92
2022-11-11T08:44:43.132Z,57.90
2022-11-11T08:47:10.288Z,45.67
2022-11-11T08:49:37.358Z,55.55
2022-11-11T08:52:04.468Z,33.15
2022-11-11T08:54:31.634Z,27.60
2022-11-11T08:56:58.710Z,44.10
2022-11-11T08:59:25.797Z,27.48
2022-11-11T09:01:52.906Z,29.73
2022-11-11T09:04:43.564Z,11.10
2022-11-11T09:07:10.615Z,8.50
2022-11-11T09:09:37.768Z,9.05
2022-11-11T09:12:04.948Z,11.70
2022-11-11T09:14:32.117Z,15.75
2022-11-11T09:16:59.251Z,7.63
2022-11-11T09:19:26.358Z,20.42
2022-11-11T09:21:53.559Z,6.82
2022-11-11T09:24:20.642Z,7.93
2022-11-11T09:26:49.249Z,8.73
2022-11-11T09:29:16.600Z,8.35
2022-11-11T09:31:45.392Z,19.35
2022-11-11T09:34:13.366Z,10.68
2022-11-11T09:36:40.477Z,12.05
2022-11-11T09:39:07.628Z,25.70
2022-11-11T09:41:34.707Z,23.63
2022-11-11T09:44:02.111Z,9.60
2022-11-11T09:46:41.010Z,26.17
2022-11-11T09:49:26.997Z,19.30
2022-11-11T09:51:56.077Z,20.10
2022-11-11T09:54:36.820Z,13.88
2022-11-11T09:57:05.186Z,8.93
2022-11-11T09:59:35.763Z,18.52
2022-11-11T10:02:02.861Z,11.77
2022-11-11T10:04:35.704Z,8.82
2022-11-11T10:07:12.914Z,14.35
2022-11-11T10:09:42.541Z,12.82
2022-11-11T10:12:13.408Z,10.48
2022-11-11T10:14:41.547Z,7.70
2022-11-11T10:17:27.410Z,14.98
2022-11-11T10:19:57.484Z,33.30
2022-11-11T10:22:36.945Z,7.72
2022-11-11T10:25:13.119Z,8.20
2022-11-11T10:27:49.418Z,12.48
2022-11-11T10:30:19.593Z,6.18
2022-11-11T10:32:46.923Z,8.30
2022-11-11T10:35:16.825Z,9.57
2022-11-11T10:37:45.225Z,7.00
2022-11-11T10:40:15.346Z,5.97
2022-11-11T10:42:44.164Z,10.68
2022-11-11T10:45:29.926Z,10.68
2022-11-11T10:48:02.968Z,10.95
2022-11-11T10:50:31.247Z,11.50
2022-11-11T10:53:03.882Z,10.60
2022-11-11T10:55:35.985Z,7.40
2022-11-11T10:58:08.659Z,4.97
2022-11-11T11:00:39.687Z,6.25
2022-11-11T11:03:31.784Z,7.07
2022-11-11T11:06:00.188Z,8.00
2022-11-11T11:08:28.424Z,13.52
2022-11-11T11:11:02.548Z,13.02
2022-11-11T11:13:29.645Z,12.00
2022-11-11T11:16:15.127Z,9.50
2022-11-11T11:18:43.576Z,15.15
2022-11-11T11:21:10.851Z,7.75
2022-11-11T11:23:37.985Z,5.28
2022-11-11T11:26:05.367Z,6.45
2022-11-11T11:28:32.617Z,5.32
2022-11-11T11:31:00.424Z,5.45
2022-11-11T11:33:27.574Z,4.22
2022-11-11T11:35:54.707Z,4.50
2022-11-11T11:38:22.438Z,7.32
2022-11-11T11:40:53.692Z,7.35
2022-11-11T11:43:34.628Z,3.97
2022-11-11T11:46:21.732Z,7.85
2022-11-11T11:48:49.083Z,4.00
2022-11-11T11:51:30.073Z,6.10
2022-11-11T11:54:17.454Z,3.55
2022-11-11T11:56:49.117Z,11.88
2022-11-11T11:59:23.837Z,5.30
2022-11-11T12:01:52.120Z,6.00
2022-11-11T12:04:22.378Z,14.60
2022-11-11T12:06:51.927Z,7.60
2022-11-11T12:09:31.412Z,9.90
2022-11-11T12:12:16.112Z,12.95
2022-11-11T12:14:53.211Z,10.80
2022-11-11T12:17:23.377Z,8.32
2022-11-11T12:19:50.484Z,39.90
2022-11-11T12:22:17.565Z,48.33
2022-11-11T12:24:50.656Z,7.72
2022-11-11T12:27:20.809Z,5.70
2022-11-11T12:30:08.188Z,10.27
2022-11-11T12:32:48.549Z,5.95
2022-11-11T12:35:35.156Z,5.85
2022-11-11T12:38:05.400Z,10.18
2022-11-11T12:40:57.183Z,306.33
2022-11-11T12:43:27.575Z,12.10
2022-11-11T12:46:13.675Z,9.27
2022-11-11T12:48:46.883Z,4.38
2022-11-11T12:51:21.904Z,56.00
2022-11-11T12:54:03.936Z,8.50
2022-11-11T12:56:33.939Z,144.02
2022-11-11T12:59:06.876Z,132.57
2022-11-11T13:01:38.517Z,27.73
2022-11-11T13:04:23.992Z,12.63
2022-11-11T13:07:18.377Z,10.30
2022-11-11T13:10:04.480Z,5.50
2022-11-11T13:12:37.651Z,8.23
2022-11-11T13:15:17.989Z,25.27
2022-11-11T13:17:45.115Z,23.50
2022-11-11T13:20:15.286Z,16.58
2022-11-11T13:22:42.379Z,15.15
2022-11-11T13:25:15.495Z,12.00
2022-11-11T13:27:44.185Z,21.25
2022-11-11T13:30:30.153Z,8.50
2022-11-11T13:33:01.139Z,12.23
2022-11-11T13:35:28.284Z,19.65
2022-11-11T13:37:55.426Z,16.40
2022-11-11T13:40:44.652Z,17.85
2022-11-11T13:43:23.075Z,30.33
2022-11-11T13:45:51.522Z,28.30
2022-11-11T13:48:19.983Z,33.20
2022-11-11T13:50:47.124Z,21.27
2022-11-11T13:53:15.651Z,11.45
2022-11-11T13:55:43.817Z,12.98
2022-11-11T13:58:43.314Z,53.33
2022-11-11T14:01:11.011Z,36.97
2022-11-11T14:03:58.853Z,57.08
2022-11-11T14:06:28.718Z,55.33
2022-11-11T14:08:55.912Z,47.58
2022-11-11T14:11:26.507Z,22.80
2022-11-11T14:14:00.105Z,28.02
2022-11-11T14:16:36.567Z,70.88
2022-11-11T14:19:21.779Z,74.15
2022-11-11T14:21:58.836Z,64.65
2022-11-11T14:24:46.027Z,50.53
2022-11-11T14:27:13.665Z,22.42
2022-11-11T14:29:52.342Z,12.43
2022-11-11T14:32:20.325Z,32.40
2022-11-11T14:34:51.069Z,45.67
2022-11-11T14:37:29.428Z,49.28
2022-11-11T14:39:56.944Z,33.85
2022-11-11T14:42:36.374Z,31.95
2022-11-11T14:45:03.762Z,30.48
2022-11-11T14:47:33.660Z,29.35
2022-11-11T14:50:00.950Z,20.23
2022-11-11T14:52:40.645Z,23.33
2022-11-11T14:55:17.036Z,16.73
2022-11-11T14:57:50.724Z,16.70
2022-11-11T15:00:20.947Z,75.63
2022-11-11T15:03:04.838Z,18.42
2022-11-11T15:05:42.569Z,8.60
2022-11-11T15:08:15.780Z,164.38
2022-11-11T15:10:53.815Z,138.80
2022-11-11T15:13:36.559Z,75.55
2022-11-11T15:16:13.305Z,49.92
2022-11-11T15:18:52.789Z,62.70
2022-11-11T15:21:31.895Z,214.45
2022-11-11T15:24:16.102Z,177.80
2022-11-11T15:26:46.301Z,129.02
2022-11-11T15:29:20.881Z,136.15
2022-11-11T15:31:52.145Z,104.35
2022-11-11T15:34:25.400Z,97.40
2022-11-11T15:36:56.847Z,144.32
2022-11-11T15:39:25.434Z,123.85
2022-11-11T15:41:53.319Z,117.25
2022-11-11T15:44:25.278Z,64.05
2022-11-11T15:46:53.425Z,57.25
2022-11-11T15:49:38.809Z,58.42
2022-11-11T15:52:07.226Z,73.75
2022-11-11T15:54:35.289Z,99.47
2022-11-11T15:57:21.027Z,198.55
2022-11-11T15:59:48.286Z,99.45
2022-11-11T16:02:17.240Z,108.15
2022-11-11T16:04:55.351Z,136.50
2022-11-11T16:07:24.694Z,115.43
2022-11-11T16:09:52.022Z,150.98
2022-11-11T16:12:20.193Z,137.38
2022-11-11T16:14:47.647Z,134.13
2022-11-11T16:17:14.820Z,121.15
2022-11-11T16:19:47.836Z,76.00
2022-11-11T16:22:16.147Z,162.20
2022-11-11T16:24:45.149Z,149.70
2022-11-11T16:27:13.605Z,223.90
2022-11-11T16:29:41.106Z,281.55
2022-11-11T16:32:26.830Z,418.48
2022-11-11T16:34:54.308Z,458.02
2022-11-11T16:37:21.855Z,345.15
2022-11-11T16:39:48.937Z,226.80
2022-11-11T16:42:21.727Z,150.45
2022-11-11T16:44:58.912Z,143.80
2022-11-11T16:47:29.045Z,179.00
2022-11-11T16:50:01.929Z,261.95
2022-11-11T16:52:29.061Z,324.48
2022-11-11T16:54:57.013Z,355.40
2022-11-11T16:57:25.353Z,353.95
2022-11-11T16:59:53.848Z,433.38
2022-11-11T17:02:21.815Z,344.08
2022-11-11T17:04:55.810Z,241.60
2022-11-11T17:07:32.023Z,222.82
2022-11-11T17:10:12.468Z,187.82
2022-11-11T17:12:39.798Z,172.70
2022-11-11T17:15:10.544Z,179.02
2022-11-11T17:17:37.879Z,177.43
2022-11-11T17:20:06.008Z,171.75
2022-11-11T17:22:33.105Z,164.30
2022-11-11T17:25:00.201Z,142.95
2022-11-11T17:27:30.005Z,135.55
2022-11-11T17:29:57.156Z,153.30
2022-11-11T17:32:24.437Z,150.35
2022-11-11T17:34:51.534Z,139.35
2022-11-11T17:37:18.698Z,131.52
2022-11-11T17:39:46.136Z,130.02
2022-11-11T17:42:14.062Z,106.47
2022-11-11T17:44:41.162Z,153.63
2022-11-11T17:47:08.279Z,174.10
2022-11-11T17:49:55.623Z,267.23
2022-11-11T17:52:22.617Z,219.40
2022-11-11T17:54:49.724Z,204.65
2022-11-11T17:57:16.965Z,165.60
2022-11-11T17:59:44.129Z,186.90
2022-11-11T18:02:14.145Z,168.23
2022-11-11T18:04:41.758Z,156.30
2022-11-11T18:07:09.128Z,126.95
2022-11-11T18:09:36.406Z,114.55
2022-11-11T18:12:03.588Z,129.88
2022-11-11T18:14:30.693Z,366.57
2022-11-11T18:16:57.808Z,179.38
2022-11-11T18:19:24.882Z,147.07
2022-11-11T18:21:51.996Z,165.32
2022-11-11T18:24:19.074Z,162.50
2022-11-11T18:26:46.171Z,160.65
2022-11-11T18:29:13.297Z,153.80
2022-11-11T18:31:40.411Z,198.75
2022-11-11T18:34:07.553Z,176.45
2022-11-11T18:36:34.657Z,125.93
2022-11-11T18:39:01.794Z,113.60
2022-11-11T18:41:28.873Z,87.22
2022-11-11T18:43:57.731Z,106.50
2022-11-11T18:46:25.583Z,123.38
2022-11-11T18:48:56.006Z,105.53
2022-11-11T18:51:23.789Z,100.78
2022-11-11T18:53:50.971Z,115.53
2022-11-11T18:56:18.848Z,102.78
2022-11-11T18:58:52.697Z,96.78
2022-11-11T19:01:27.202Z,95.60
2022-11-11T19:03:55.563Z,117.63
2022-11-11T19:06:22.681Z,123.57
2022-11-11T19:08:50.126Z,116.25
2022-11-11T19:11:17.242Z,139.48
2022-11-11T19:13:44.311Z,179.45
2022-11-11T19:16:12.532Z,159.75
2022-11-11T19:18:40.993Z,198.48
2022-11-11T19:21:11.787Z,160.38
2022-11-11T19:23:39.029Z,169.60
2022-11-11T19:26:06.349Z,158.02
2022-11-11T19:28:33.577Z,144.52
2022-11-11T19:31:04.585Z,157.67
2022-11-11T19:33:33.025Z,148.10
2022-11-11T19:36:00.660Z,154.15
2022-11-11T19:38:27.753Z,134.38
2022-11-11T19:40:54.914Z,119.72
2022-11-11T19:43:22.131Z,123.07
2022-11-11T19:45:49.267Z,336.58
2022-11-11T19:48:16.425Z,261.20
2022-11-11T19:50:43.632Z,148.13
2022-11-11T19:53:13.908Z,137.73
2022-11-11T19:55:41.415Z,178.10
2022-11-11T19:58:08.592Z,183.15
2022-11-11T20:00:35.808Z,146.15
2022-11-11T20:03:04.477Z,90.07
2022-11-11T20:05:31.820Z,64.05
2022-11-11T20:08:00.378Z,93.17
2022-11-11T20:10:27.509Z,136.55
2022-11-11T20:12:54.654Z,122.30
2022-11-11T20:15:21.788Z,134.23
2022-11-11T20:17:48.910Z,152.20
2022-11-11T20:20:16.151Z,152.48
2022-11-11T20:22:43.381Z,164.07
2022-11-11T20:25:10.590Z,166.75
2022-11-11T20:27:37.687Z,133.67
2022-11-11T20:30:05.274Z,132.73
2022-11-11T20:32:33.346Z,113.03
2022-11-11T20:35:00.432Z,133.38
2022-11-11T20:37:28.807Z,180.05
2022-11-11T20:39:55.934Z,129.10
2022-11-11T20:42:23.017Z,105.50
2022-11-11T20:44:50.112Z,144.88
2022-11-11T20:47:17.242Z,129.80
2022-11-11T20:49:44.426Z,88.30
2022-11-11T20:52:12.424Z,79.25
2022-11-11T20:54:39.867Z,86.63
2022-11-11T20:57:07.047Z,123.70
2022-11-11T20:59:34.189Z,121.93
2022-11-11T21:02:01.395Z,120.70
2022-11-11T21:04:28.496Z,113.78
2022-11-11T21:07:14.089Z,120.95
2022-11-11T21:09:41.209Z,108.88
2022-11-11T21:12:08.317Z,118.43
2022-11-11T21:14:35.515Z,130.87
2022-11-11T21:17:02.656Z,123.47
2022-11-11T21:19:29.732Z,125.10
2022-11-11T21:21:56.848Z,134.65
2022-11-11T21:24:23.915Z,109.32
2022-11-11T21:26:51.846Z,116.50
2022-11-11T21:29:19.103Z,113.72
2022-11-11T21:31:46.200Z,111.27
2022-11-11T21:34:13.459Z,98.37
2022-11-11T21:36:43.562Z,94.23
2022-11-11T21:39:10.751Z,82.27
2022-11-11T21:41:38.625Z,75.37
2022-11-11T21:44:06.148Z,78.33
2022-11-11T21:46:34.513Z,73.47
2022-11-11T21:49:01.869Z,73.93
2022-11-11T21:51:29.806Z,77.53
2022-11-11T21:54:02.230Z,86.33
2022-11-11T21:56:39.744Z,95.97
2022-11-11T21:59:07.211Z,66.33
2022-11-11T22:01:34.416Z,78.10
2022-11-11T22:04:02.797Z,82.20
2022-11-11T22:06:30.069Z,104.13
2022-11-11T22:08:57.476Z,103.68
2022-11-11T22:11:25.522Z,92.15
2022-11-11T22:13:52.682Z,89.80
2022-11-11T22:16:29.511Z,95.50
2022-11-11T22:18:57.416Z,93.17
2022-11-11T22:21:26.613Z,94.80
2022-11-11T22:23:57.584Z,83.47
2022-11-11T22:26:25.420Z,82.07
2022-11-11T22:28:54.581Z,82.67
2022-11-11T22:31:26.134Z,79.50
2022-11-11T22:33:56.937Z,86.27
2022-11-11T22:36:24.088Z,82.70
2022-11-11T22:38:51.227Z,83.23
2022-11-11T22:41:19.142Z,87.25
2022-11-11T22:43:59.286Z,72.43
2022-11-11T22:46:27.542Z,64.90
2022-11-11T22:48:55.480Z,71.20
2022-11-11T22:51:22.734Z,75.73
2022-11-11T22:53:49.844Z,54.73
2022-11-11T22:56:17.982Z,65.90
2022-11-11T22:58:45.666Z,67.33
2022-11-11T23:01:13.541Z,60.57
2022-11-11T23:03:44.111Z,52.03
2022-11-11T23:06:15.255Z,56.17
2022-11-11T23:08:42.535Z,56.57
2022-11-11T23:11:13.398Z,53.57
2022-11-11T23:13:40.765Z,60.60
2022-11-11T23:16:08.228Z,99.47
2022-11-11T23:18:35.313Z,62.33
2022-11-11T23:21:03.293Z,72.60
2022-11-11T23:23:30.508Z,472.07
2022-11-11T23:26:02.384Z,88.90
2022-11-11T23:28:29.509Z,216.50
2022-11-11T23:31:06.908Z,80.80
2022-11-11T23:33:34.224Z,72.40
2022-11-11T23:36:01.716Z,69.37
2022-11-11T23:38:29.092Z,280.23
2022-11-11T23:40:56.369Z,176.97
2022-11-11T23:43:23.854Z,64.93
2022-11-11T23:45:55.896Z,61.20
2022-11-11T23:48:24.630Z,133.37
2022-11-11T23:50:52.027Z,84.73
2022-11-11T23:53:19.179Z,61.17
2022-11-11T23:55:46.331Z,71.47
2022-11-11T23:58:13.453Z,75.77
